createdAt,value
2023-01-09T00:01:01.084Z,11
2023-01-09T00:06:00.270Z,14
2023-01-09T00:11:00.281Z,13
2023-01-09T00:16:00.781Z,13
2023-01-09T00:21:00.346Z,13
2023-01-09T00:26:00.299Z,13
2023-01-09T00:31:00.355Z,12
2023-01-09T00:36:00.319Z,11
2023-01-09T00:41:00.348Z,10
2023-01-09T00:46:00.382Z,8
2023-01-09T00:51:00.860Z,4
2023-01-09T00:56:00.345Z,10
2023-01-09T01:01:00.568Z,4
2023-01-09T01:06:00.357Z,1
2023-01-09T01:11:00.388Z,1
2023-01-09T01:16:00.395Z,1
2023-01-09T01:21:00.442Z,0
2023-01-09T01:26:00.405Z,1
2023-01-09T01:31:00.506Z,1
2023-01-09T01:36:00.421Z,1
2023-01-09T01:41:00.459Z,1
2023-01-09T01:46:00.499Z,1
2023-01-09T01:51:00.450Z,0
2023-01-09T01:56:00.447Z,1
2023-01-09T02:01:01.311Z,1
2023-01-09T02:06:00.480Z,0
2023-01-09T02:26:01.340Z,0
2023-01-09T02:31:00.579Z,0
2023-01-09T02:36:01.041Z,1
2023-01-09T02:41:00.530Z,1
2023-01-09T02:46:01.200Z,1
2023-01-09T02:51:01.087Z,1
2023-01-09T03:11:01.438Z,1
2023-01-09T03:16:00.653Z,1
2023-01-09T03:21:01.116Z,1
2023-01-09T03:26:01.129Z,1
2023-01-09T03:31:01.308Z,1
2023-01-09T03:36:00.634Z,1
2023-01-09T03:41:01.155Z,1
2023-01-09T03:46:00.734Z,1
2023-01-09T03:51:01.323Z,1
2023-01-09T04:01:01.361Z,1
2023-01-09T04:06:00.685Z,1
2023-01-09T04:11:00.738Z,1
2023-01-09T04:16:00.756Z,1
2023-01-09T04:21:01.381Z,1
2023-01-09T04:26:01.231Z,1
2023-01-09T04:31:00.755Z,1
2023-01-09T04:36:00.745Z,1
2023-01-09T04:41:01.262Z,1
2023-01-09T04:46:01.323Z,2
2023-01-09T04:51:00.802Z,1
2023-01-09T04:56:00.776Z,2
2023-01-09T05:01:01.494Z,2
2023-01-09T05:06:00.823Z,1
2023-01-09T05:11:00.844Z,1
2023-01-09T05:16:00.812Z,2
2023-01-09T05:21:01.330Z,1
2023-01-09T05:26:00.835Z,2
2023-01-09T05:46:01.722Z,2
2023-01-09T05:51:01.394Z,1
2023-01-09T06:06:01.804Z,1
2023-01-09T06:26:01.777Z,1
2023-01-09T06:31:01.541Z,1
2023-01-09T06:36:00.948Z,1
2023-01-09T06:41:00.967Z,1
2023-01-09T06:46:01.328Z,1
2023-01-09T06:51:00.988Z,2
2023-01-09T06:56:01.526Z,2
2023-01-09T07:01:01.128Z,1
2023-01-09T07:06:01.545Z,2
2023-01-09T07:11:01.009Z,2
2023-01-09T07:16:01.022Z,1
2023-01-09T07:21:01.030Z,1
2023-01-09T07:26:01.083Z,1
2023-01-09T07:31:01.085Z,3
2023-01-09T07:36:01.701Z,1
2023-01-09T07:41:01.584Z,2
2023-01-09T07:46:01.129Z,3
2023-01-09T07:51:01.651Z,2
2023-01-09T07:56:01.618Z,2
2023-01-09T08:01:01.121Z,2
2023-01-09T08:06:01.153Z,2
2023-01-09T08:11:01.663Z,3
2023-01-09T08:16:01.705Z,2
2023-01-09T08:21:01.702Z,2
2023-01-09T08:26:01.205Z,2
2023-01-09T08:31:01.156Z,2
2023-01-09T08:36:01.785Z,1
2023-01-09T08:41:01.702Z,2
2023-01-09T08:46:01.333Z,2
2023-01-09T08:51:01.207Z,2
2023-01-09T08:56:01.214Z,2
2023-01-09T09:01:01.716Z,2
2023-01-09T09:06:03.151Z,2
2023-01-09T09:11:01.298Z,1
2023-01-09T09:16:01.296Z,1
2023-01-09T09:21:01.250Z,1
2023-01-09T09:26:01.800Z,2
2023-01-09T09:31:01.410Z,1
2023-01-09T09:36:01.280Z,1
2023-01-09T09:41:01.789Z,2
2023-01-09T09:46:01.360Z,1
2023-01-09T09:51:01.300Z,2
2023-01-09T09:56:02.197Z,1
2023-01-09T10:01:01.343Z,2
2023-01-09T10:11:27.180Z,3
2023-01-09T10:16:27.080Z,3
2023-01-09T10:21:26.990Z,3
2023-01-09T10:26:27.633Z,2
2023-01-09T10:31:27.096Z,2
2023-01-09T10:36:27.025Z,3
2023-01-09T10:41:27.644Z,3
2023-01-09T10:46:27.724Z,3
2023-01-09T10:51:27.690Z,3
2023-01-09T10:56:27.696Z,3
2023-01-09T11:01:27.077Z,2
2023-01-09T11:06:27.578Z,3
2023-01-09T11:11:27.115Z,3
2023-01-09T11:16:27.622Z,2
2023-01-09T11:21:27.609Z,2
2023-01-09T11:26:27.623Z,2
2023-01-09T11:31:27.752Z,2
2023-01-09T11:36:30.673Z,2
2023-01-09T11:41:27.142Z,2
2023-01-09T11:46:27.174Z,2
2023-01-09T11:51:27.171Z,2
2023-01-09T11:56:27.172Z,2
2023-01-09T12:01:27.675Z,2
2023-01-09T12:06:27.172Z,1
2023-01-09T12:11:27.297Z,2
2023-01-09T12:16:27.231Z,2
2023-01-09T12:21:27.824Z,3
2023-01-09T12:26:27.865Z,2
2023-01-09T12:31:28.020Z,2
2023-01-09T12:36:27.832Z,2
2023-01-09T12:41:27.848Z,2
2023-01-09T12:46:27.245Z,2
2023-01-09T12:51:27.879Z,2
2023-01-09T12:56:27.290Z,2
2023-01-09T13:01:28.052Z,2
2023-01-09T13:06:27.292Z,1
2023-01-09T13:11:27.939Z,2
2023-01-09T13:16:27.509Z,1
2023-01-09T13:21:27.931Z,1
2023-01-09T13:26:27.379Z,1
2023-01-09T13:31:28.014Z,2
2023-01-09T13:36:27.941Z,2
2023-01-09T13:41:27.846Z,2
2023-01-09T13:46:30.387Z,2
2023-01-09T13:51:27.365Z,1
2023-01-09T13:56:27.393Z,2
2023-01-09T14:01:28.282Z,2
2023-01-09T14:06:27.406Z,2
2023-01-09T14:11:33.364Z,2
2023-01-09T14:16:27.538Z,2
2023-01-09T14:21:27.928Z,2
2023-01-09T14:26:27.949Z,2
2023-01-09T14:31:28.082Z,2
2023-01-09T14:36:27.451Z,2
2023-01-09T14:41:29.920Z,1
2023-01-09T14:46:27.964Z,2
2023-01-09T14:51:46.098Z,1
2023-01-09T14:56:28.006Z,1
2023-01-09T15:01:27.555Z,2
2023-01-09T15:06:27.498Z,2
2023-01-09T15:11:27.619Z,4
2023-01-09T15:16:28.161Z,1
2023-01-09T15:21:27.550Z,2
2023-01-09T15:26:28.154Z,1
2023-01-09T15:31:28.274Z,1
2023-01-09T15:36:34.213Z,1
2023-01-09T15:41:27.567Z,2
2023-01-09T15:46:27.556Z,2
2023-01-09T15:51:28.181Z,3
2023-01-09T15:56:27.615Z,1
2023-01-09T16:01:28.243Z,2
2023-01-09T16:06:28.212Z,1
2023-01-09T16:11:27.609Z,2
2023-01-09T16:16:28.159Z,1
2023-01-09T16:21:27.633Z,2
2023-01-09T16:26:27.648Z,2
2023-01-09T16:31:28.216Z,2
2023-01-09T16:36:28.193Z,2
2023-01-09T16:41:28.162Z,2
2023-01-09T16:46:28.415Z,2
2023-01-09T16:51:27.805Z,3
2023-01-09T16:56:27.740Z,5
2023-01-09T17:01:27.752Z,3
2023-01-09T17:06:27.859Z,2
2023-01-09T17:11:27.722Z,2
2023-01-09T17:16:27.811Z,2
2023-01-09T17:21:28.251Z,2
2023-01-09T17:26:27.747Z,2
2023-01-09T17:31:27.800Z,2
2023-01-09T17:36:28.314Z,2
2023-01-09T17:41:27.769Z,2
2023-01-09T17:46:27.792Z,2
2023-01-09T17:51:28.315Z,3
2023-01-09T17:56:27.867Z,4
2023-01-09T18:01:27.868Z,3
2023-01-09T18:06:27.817Z,2
2023-01-09T18:11:27.820Z,2
2023-01-09T18:16:28.687Z,2
2023-01-09T18:21:28.449Z,2
2023-01-09T18:26:27.857Z,3
2023-01-09T18:31:28.573Z,3
2023-01-09T18:36:28.497Z,3
2023-01-09T18:41:27.891Z,3
2023-01-09T18:46:29.281Z,2
2023-01-09T18:51:27.919Z,2
2023-01-09T18:56:38.781Z,2
2023-01-09T19:01:28.039Z,2
2023-01-09T19:06:28.527Z,2
2023-01-09T19:11:27.930Z,2
2023-01-09T19:16:28.463Z,2
2023-01-09T19:21:27.950Z,2
2023-01-09T19:26:27.976Z,2
2023-01-09T19:31:46.072Z,2
2023-01-09T19:36:28.021Z,3
2023-01-09T19:41:28.544Z,3
2023-01-09T19:46:27.992Z,2
2023-01-09T19:51:33.411Z,2
2023-01-09T19:56:28.513Z,3
2023-01-09T20:01:28.587Z,3
2023-01-09T20:06:28.533Z,3
2023-01-09T20:11:43.037Z,2
2023-01-09T20:16:28.178Z,3
2023-01-09T20:21:28.647Z,2
2023-01-09T20:26:28.062Z,3
2023-01-09T20:31:33.653Z,2
2023-01-09T20:36:34.169Z,2
2023-01-09T20:41:31.111Z,3
2023-01-09T20:46:28.703Z,2
2023-01-09T20:51:34.766Z,2
2023-01-09T20:56:28.115Z,3
2023-01-09T21:01:28.145Z,2
2023-01-09T21:06:28.791Z,2
2023-01-09T21:11:33.593Z,2
2023-01-09T21:16:34.285Z,2
2023-01-09T21:21:28.803Z,2
2023-01-09T21:26:28.246Z,1
2023-01-09T21:31:35.334Z,2
2023-01-09T21:36:28.184Z,2
2023-01-09T21:41:28.197Z,2
2023-01-09T21:46:28.202Z,1
2023-01-09T21:51:28.842Z,1
2023-01-09T21:56:28.222Z,2
2023-01-09T22:01:28.735Z,1
2023-01-09T22:06:28.787Z,2
2023-01-09T22:11:28.773Z,2
2023-01-09T22:16:28.786Z,2
2023-01-09T22:21:28.255Z,2
2023-01-09T22:26:28.771Z,1
2023-01-09T22:31:28.337Z,1
2023-01-09T22:36:28.796Z,1
2023-01-09T22:41:28.807Z,1
2023-01-09T22:46:28.321Z,2
2023-01-09T22:51:28.374Z,1
2023-01-09T22:56:28.332Z,2
2023-01-09T23:01:28.842Z,2
2023-01-09T23:06:31.979Z,2
2023-01-09T23:11:28.973Z,1
2023-01-09T23:16:28.998Z,2
2023-01-09T23:21:28.371Z,2
2023-01-09T23:26:29.021Z,1
2023-01-09T23:31:28.390Z,2
2023-01-09T23:36:28.948Z,2
2023-01-09T23:41:28.907Z,3
2023-01-09T23:46:28.429Z,3
2023-01-09T23:51:28.430Z,3
2023-01-09T23:56:28.438Z,2
